createdAt,value
2024-03-12T00:00:29.579Z,0.00
2024-03-12T00:01:29.487Z,0.00
2024-03-12T00:02:29.343Z,0.00
2024-03-12T00:03:29.298Z,0.00
2024-03-12T00:04:29.223Z,0.00
2024-03-12T00:05:29.295Z,0.00
2024-03-12T00:06:29.090Z,0.00
2024-03-12T00:07:28.915Z,0.00
2024-03-12T00:08:28.839Z,0.00
2024-03-12T00:09:28.773Z,0.00
2024-03-12T00:10:28.664Z,0.00
2024-03-12T00:11:28.656Z,0.00
2024-03-12T00:12:28.545Z,0.00
2024-03-12T00:13:28.405Z,0.00
2024-03-12T00:14:28.321Z,0.00
2024-03-12T00:15:28.272Z,0.00
2024-03-12T00:16:29.336Z,0.00
2024-03-12T00:17:28.141Z,0.00
2024-03-12T00:18:27.997Z,0.00
2024-03-12T00:19:27.894Z,0.00
2024-03-12T00:20:27.865Z,0.00
2024-03-12T00:21:27.773Z,0.00
2024-03-12T00:22:27.639Z,0.00
2024-03-12T00:23:27.549Z,0.00
2024-03-12T00:24:27.510Z,0.00
2024-03-12T00:25:27.384Z,0.00
2024-03-12T00:26:27.310Z,0.00
2024-03-12T00:27:27.234Z,0.00
2024-03-12T00:28:27.124Z,0.00
2024-03-12T00:29:27.041Z,0.00
2024-03-12T00:30:26.989Z,0.00
2024-03-12T00:31:27.218Z,0.00
2024-03-12T00:32:26.840Z,0.00
2024-03-12T00:33:26.720Z,0.00
2024-03-12T00:34:26.668Z,0.00
2024-03-12T00:35:26.527Z,0.00
2024-03-12T00:36:26.532Z,0.00
2024-03-12T00:37:26.359Z,0.00
2024-03-12T00:38:26.272Z,0.00
2024-03-12T00:39:26.224Z,0.00
2024-03-12T00:40:26.099Z,0.00
2024-03-12T00:41:26.016Z,0.00
2024-03-12T00:42:25.942Z,0.00
2024-03-12T00:43:25.847Z,0.00
2024-03-12T00:44:25.795Z,0.00
2024-03-12T00:45:25.692Z,0.00
2024-03-12T00:46:25.846Z,0.00
2024-03-12T00:47:25.540Z,0.00
2024-03-12T00:48:25.434Z,0.00
2024-03-12T00:49:25.326Z,0.00
2024-03-12T00:50:25.238Z,0.00
2024-03-12T00:51:25.176Z,0.00
2024-03-12T00:52:25.156Z,0.00
2024-03-12T00:53:24.986Z,0.00
2024-03-12T00:54:24.937Z,0.00
2024-03-12T00:55:24.986Z,0.00
2024-03-12T00:56:24.725Z,0.00
2024-03-12T00:57:24.697Z,0.00
2024-03-12T00:58:24.636Z,0.00
2024-03-12T00:59:24.478Z,0.00
2024-03-12T01:00:24.457Z,0.00
2024-03-12T01:01:24.438Z,0.00
2024-03-12T01:02:24.214Z,0.00
2024-03-12T01:03:24.165Z,0.00
2024-03-12T01:04:24.243Z,0.00
2024-03-12T01:05:23.958Z,0.00
2024-03-12T01:06:24.938Z,0.00
2024-03-12T01:07:23.789Z,0.00
2024-03-12T01:09:23.701Z,0.00
2024-03-12T01:10:23.559Z,0.00
2024-03-12T01:11:23.477Z,0.00
2024-03-12T01:12:23.440Z,0.00
2024-03-12T01:13:23.273Z,0.00
2024-03-12T01:14:23.190Z,0.00
2024-03-12T01:15:23.157Z,0.00
2024-03-12T01:16:23.017Z,0.00
2024-03-12T01:17:22.930Z,0.00
2024-03-12T01:18:22.887Z,0.00
2024-03-12T01:19:23.903Z,0.00
2024-03-12T01:20:23.020Z,0.00
2024-03-12T01:21:22.706Z,0.00
2024-03-12T01:22:22.539Z,0.00
2024-03-12T01:23:22.463Z,0.00
2024-03-12T01:25:22.521Z,0.00
2024-03-12T01:26:22.161Z,0.00
2024-03-12T01:27:22.110Z,0.00
2024-03-12T01:28:22.142Z,0.00
2024-03-12T01:29:21.908Z,0.00
2024-03-12T01:30:22.341Z,0.00
2024-03-12T01:31:21.748Z,0.00
2024-03-12T01:32:21.649Z,0.00
2024-03-12T01:33:21.619Z,0.00
2024-03-12T01:34:21.485Z,0.00
2024-03-12T01:35:22.379Z,0.00
2024-03-12T01:37:21.983Z,0.00
2024-03-12T01:41:21.803Z,0.00
2024-03-12T01:42:21.036Z,0.00
2024-03-12T01:43:20.762Z,0.00
2024-03-12T01:44:20.661Z,0.00
2024-03-12T01:46:20.461Z,0.00
2024-03-12T01:47:20.372Z,0.00
2024-03-12T01:48:20.286Z,0.00
2024-03-12T01:49:20.199Z,0.00
2024-03-12T01:50:20.121Z,0.00
2024-03-12T01:51:20.036Z,0.00
2024-03-12T01:52:19.952Z,0.00
2024-03-12T01:53:19.861Z,0.00
2024-03-12T01:54:19.775Z,0.00
2024-03-12T01:55:20.168Z,0.00
2024-03-12T01:56:19.606Z,0.00
2024-03-12T01:57:19.698Z,0.00
2024-03-12T01:58:19.445Z,0.00
2024-03-12T01:59:19.353Z,0.00
2024-03-12T02:00:19.268Z,0.00
2024-03-12T02:01:19.258Z,0.00
2024-03-12T02:02:19.096Z,0.00
2024-03-12T02:03:19.009Z,0.00
2024-03-12T02:04:18.927Z,0.00
2024-03-12T02:05:18.867Z,0.00
2024-03-12T02:08:18.832Z,0.00
2024-03-12T02:09:18.506Z,0.00
2024-03-12T02:10:18.417Z,0.00
2024-03-12T02:11:18.363Z,0.00
2024-03-12T02:12:18.248Z,0.00
2024-03-12T02:13:18.243Z,0.00
2024-03-12T02:14:18.077Z,0.00
2024-03-12T02:15:18.000Z,0.00
2024-03-12T02:16:18.454Z,0.00
2024-03-12T02:17:17.827Z,0.00
2024-03-12T02:18:17.773Z,0.00
2024-03-12T02:19:17.656Z,0.00
2024-03-12T02:20:17.573Z,0.00
2024-03-12T02:21:17.486Z,0.00
2024-03-12T02:22:17.404Z,0.00
2024-03-12T02:23:17.324Z,0.00
2024-03-12T02:24:17.240Z,0.00
2024-03-12T02:25:17.160Z,0.00
2024-03-12T02:26:17.066Z,0.00
2024-03-12T02:27:16.991Z,0.00
2024-03-12T02:28:16.928Z,0.00
2024-03-12T02:29:17.097Z,0.00
2024-03-12T02:30:16.787Z,0.00
2024-03-12T02:31:17.089Z,0.00
2024-03-12T02:32:16.657Z,0.00
2024-03-12T02:33:16.529Z,0.00
2024-03-12T02:34:16.389Z,0.00
2024-03-12T02:35:16.310Z,0.00
2024-03-12T02:36:16.230Z,0.00
2024-03-12T02:37:16.149Z,0.00
2024-03-12T02:38:16.050Z,0.00
2024-03-12T02:39:15.993Z,0.00
2024-03-12T02:40:17.046Z,0.00
2024-03-12T02:41:15.797Z,0.00
2024-03-12T02:42:15.720Z,0.00
2024-03-12T02:43:15.665Z,0.00
2024-03-12T02:44:15.542Z,0.00
2024-03-12T02:45:16.579Z,0.00
2024-03-12T02:47:15.489Z,0.00
2024-03-12T02:48:15.246Z,0.00
2024-03-12T02:49:15.319Z,0.00
2024-03-12T02:50:15.027Z,0.00
2024-03-12T02:52:14.902Z,0.00
2024-03-12T02:53:14.776Z,0.00
2024-03-12T02:54:14.895Z,0.00
2024-03-12T02:55:15.299Z,0.00
2024-03-12T02:56:14.735Z,0.00
2024-03-12T02:57:14.846Z,0.00
2024-03-12T02:59:14.487Z,0.00
2024-03-12T03:00:15.706Z,0.00
2024-03-12T03:01:14.203Z,0.00
2024-03-12T03:02:14.011Z,0.00
2024-03-12T03:03:13.930Z,0.00
2024-03-12T03:04:13.873Z,0.00
2024-03-12T03:05:13.829Z,0.00
2024-03-12T03:08:44.448Z,0.00
2024-03-12T03:09:44.298Z,0.00
2024-03-12T03:10:44.142Z,0.00
2024-03-12T03:11:44.053Z,0.00
2024-03-12T03:12:43.985Z,0.00
2024-03-12T03:13:43.889Z,0.00
2024-03-12T03:14:43.839Z,0.00
2024-03-12T03:15:43.730Z,0.00
2024-03-12T03:16:43.666Z,0.00
2024-03-12T03:17:44.134Z,0.00
2024-03-12T03:18:43.458Z,0.00
2024-03-12T03:19:43.368Z,0.00
2024-03-12T03:20:43.283Z,0.00
2024-03-12T03:21:43.312Z,0.00
2024-03-12T03:22:43.118Z,0.00
2024-03-12T03:23:43.025Z,0.00
2024-03-12T03:24:43.062Z,0.00
2024-03-12T03:25:42.923Z,0.00
2024-03-12T03:26:42.925Z,0.00
2024-03-12T03:28:35.197Z,0.00
2024-03-12T03:29:35.097Z,0.00
2024-03-12T03:30:35.055Z,0.00
2024-03-12T03:31:34.922Z,0.00
2024-03-12T03:32:34.903Z,0.00
2024-03-12T03:33:34.761Z,0.00
2024-03-12T03:34:34.731Z,0.00
2024-03-12T03:35:34.630Z,0.00
2024-03-12T03:36:34.596Z,0.00
2024-03-12T03:37:34.408Z,0.00
2024-03-12T03:38:34.328Z,0.00
2024-03-12T03:39:34.270Z,0.00
2024-03-12T03:40:34.156Z,0.00
2024-03-12T03:41:34.079Z,0.00
2024-03-12T03:42:34.053Z,0.00
2024-03-12T03:43:33.910Z,0.00
2024-03-12T03:44:33.824Z,0.00
2024-03-12T03:45:33.761Z,0.00
2024-03-12T03:46:33.651Z,0.00
2024-03-12T03:47:33.587Z,0.00
2024-03-12T03:48:33.543Z,0.00
2024-03-12T03:49:33.399Z,0.00
2024-03-12T03:50:33.311Z,0.00
2024-03-12T03:51:33.254Z,0.00
2024-03-12T03:52:33.158Z,0.00
2024-03-12T03:53:33.067Z,0.00
2024-03-12T03:54:33.035Z,0.00
2024-03-12T03:55:32.888Z,0.00
2024-03-12T03:56:32.808Z,0.00
2024-03-12T03:57:32.752Z,0.00
2024-03-12T03:58:32.835Z,0.00
2024-03-12T04:01:00.123Z,0.00
2024-03-12T04:02:00.032Z,0.00
2024-03-12T04:02:59.888Z,0.00
2024-03-12T04:03:59.901Z,0.00
2024-03-12T04:04:59.717Z,0.00
2024-03-12T04:05:59.631Z,0.00
2024-03-12T04:06:59.573Z,0.00
2024-03-12T04:07:59.462Z,0.00
2024-03-12T04:08:59.418Z,0.00
2024-03-12T04:09:59.328Z,0.00
2024-03-12T04:10:59.275Z,0.00
2024-03-12T04:11:59.143Z,0.00
2024-03-12T04:12:59.121Z,0.00
2024-03-12T04:13:58.953Z,0.00
2024-03-12T04:14:58.869Z,0.00
2024-03-12T04:15:58.804Z,0.00
2024-03-12T04:16:58.699Z,0.00
2024-03-12T04:17:58.683Z,0.00
2024-03-12T04:18:58.574Z,0.00
2024-03-12T04:19:58.501Z,0.00
2024-03-12T04:20:58.361Z,0.00
2024-03-12T04:21:58.321Z,0.00
2024-03-12T04:22:58.189Z,0.00
2024-03-12T04:23:58.108Z,0.00
2024-03-12T04:24:58.066Z,0.00
2024-03-12T04:25:57.948Z,0.00
2024-03-12T04:26:57.855Z,0.00
2024-03-12T04:27:57.803Z,0.00
2024-03-12T04:28:57.706Z,0.00
2024-03-12T04:32:23.225Z,0.00
2024-03-12T04:33:23.189Z,0.00
2024-03-12T04:36:48.750Z,0.00
2024-03-12T04:37:48.602Z,0.00
2024-03-12T04:38:48.511Z,0.00
2024-03-12T04:39:48.521Z,0.00
2024-03-12T04:40:48.343Z,0.00
2024-03-12T04:41:48.502Z,0.00
2024-03-12T04:42:48.189Z,0.00
2024-03-12T04:43:48.080Z,0.00
2024-03-12T04:44:47.998Z,0.00
2024-03-12T04:45:47.949Z,0.00
2024-03-12T04:46:48.192Z,0.00
2024-03-12T04:47:50.059Z,0.00
2024-03-12T04:48:47.943Z,0.00
2024-03-12T04:49:47.579Z,0.00
2024-03-12T04:50:47.492Z,0.00
2024-03-12T04:51:47.449Z,0.00
2024-03-12T04:52:47.363Z,0.00
2024-03-12T04:53:47.237Z,0.00
2024-03-12T04:54:47.187Z,0.00
2024-03-12T04:55:47.090Z,0.00
2024-03-12T04:56:46.999Z,0.00
2024-03-12T04:57:46.966Z,0.00
2024-03-12T04:58:46.815Z,0.00
2024-03-12T04:59:46.727Z,0.00
2024-03-12T05:00:46.892Z,0.00
2024-03-12T05:01:46.648Z,0.00
2024-03-12T05:02:46.622Z,0.00
2024-03-12T05:03:46.452Z,0.00
2024-03-12T05:04:46.351Z,0.00
2024-03-12T05:05:46.228Z,0.00
2024-03-12T05:11:04.990Z,0.00
2024-03-12T05:12:04.834Z,0.00
2024-03-12T05:13:05.133Z,0.00
2024-03-12T05:14:04.659Z,0.00
2024-03-12T05:15:04.571Z,0.00
2024-03-12T05:16:04.511Z,0.00
2024-03-12T05:17:04.408Z,0.00
2024-03-12T05:18:04.360Z,0.00
2024-03-12T05:19:04.354Z,0.00
2024-03-12T05:20:04.147Z,0.00
2024-03-12T05:21:04.083Z,0.00
2024-03-12T05:22:04.209Z,0.00
2024-03-12T05:23:03.892Z,0.00
2024-03-12T05:24:03.824Z,0.00
2024-03-12T05:25:03.825Z,0.00
2024-03-12T05:26:03.660Z,0.00
2024-03-12T05:27:04.836Z,0.00
2024-03-12T05:28:03.819Z,0.00
2024-03-12T05:29:03.389Z,0.00
2024-03-12T05:30:03.362Z,0.00
2024-03-12T05:31:03.313Z,0.00
2024-03-12T05:32:03.136Z,4.00
2024-03-12T05:33:03.108Z,4.00
2024-03-12T05:34:03.085Z,4.00
2024-03-12T05:35:02.883Z,0.00
2024-03-12T05:36:02.800Z,0.00
2024-03-12T05:37:03.499Z,4.00
2024-03-12T05:38:45.119Z,4.00
2024-03-12T05:39:45.195Z,8.00
2024-03-12T05:40:48.580Z,4.00
2024-03-12T05:41:44.864Z,8.00
2024-03-12T05:42:44.846Z,4.00
2024-03-12T05:43:45.675Z,8.00
2024-03-12T05:44:44.602Z,8.00
2024-03-12T05:45:44.604Z,8.00
2024-03-12T05:46:44.706Z,8.00
2024-03-12T05:47:44.467Z,8.00
2024-03-12T05:48:44.415Z,8.00
2024-03-12T05:49:44.209Z,12.00
2024-03-12T05:50:44.108Z,16.00
2024-03-12T05:51:44.027Z,12.00
2024-03-12T05:52:43.925Z,16.00
2024-03-12T05:53:43.856Z,12.00
2024-03-12T05:54:43.795Z,16.00
2024-03-12T05:55:43.674Z,16.00
2024-03-12T05:56:43.595Z,16.00
2024-03-12T05:57:43.530Z,20.00
2024-03-12T05:58:43.462Z,24.00
2024-03-12T05:59:43.343Z,28.00
2024-03-12T06:00:43.346Z,28.00
2024-03-12T06:01:43.324Z,32.00
2024-03-12T06:02:43.351Z,32.00
2024-03-12T06:03:43.053Z,40.00
2024-03-12T06:04:42.927Z,44.00
2024-03-12T06:05:42.832Z,44.00
2024-03-12T06:06:42.762Z,44.00
2024-03-12T06:07:42.683Z,48.00
2024-03-12T06:08:42.572Z,52.00
2024-03-12T06:09:42.513Z,48.00
2024-03-12T06:10:42.417Z,52.00
2024-03-12T06:11:42.364Z,48.00
2024-03-12T06:12:42.262Z,44.00
2024-03-12T06:13:42.156Z,48.00
2024-03-12T06:14:42.108Z,52.00
2024-03-12T06:15:42.230Z,56.00
2024-03-12T06:16:41.902Z,52.00
2024-03-12T06:17:41.840Z,56.00
2024-03-12T06:18:41.830Z,60.00
2024-03-12T06:19:41.646Z,64.00
2024-03-12T06:20:41.561Z,72.00
2024-03-12T06:21:41.500Z,84.00
2024-03-12T06:22:41.391Z,92.00
2024-03-12T06:23:41.347Z,80.00
2024-03-12T06:24:41.353Z,80.00
2024-03-12T06:25:41.142Z,84.00
2024-03-12T06:26:41.070Z,84.00
2024-03-12T06:27:41.005Z,88.00
2024-03-12T06:28:40.886Z,72.00
2024-03-12T06:29:40.803Z,80.00
2024-03-12T06:30:40.799Z,88.00
2024-03-12T06:31:40.641Z,92.00
2024-03-12T06:32:40.596Z,116.00
2024-03-12T06:33:40.490Z,120.00
2024-03-12T06:34:40.379Z,128.00
2024-03-12T06:35:40.293Z,140.00
2024-03-12T06:36:40.270Z,156.00
2024-03-12T06:37:40.127Z,160.00
2024-03-12T06:38:40.129Z,160.00
2024-03-12T06:39:40.047Z,168.00
2024-03-12T06:40:39.867Z,192.00
2024-03-12T06:41:39.808Z,216.00
2024-03-12T06:42:39.722Z,240.00
2024-03-12T06:43:39.618Z,252.00
2024-03-12T06:44:39.531Z,248.00
2024-03-12T06:45:39.450Z,232.00
2024-03-12T06:46:39.460Z,216.00
2024-03-12T06:47:39.471Z,208.00
2024-03-12T06:48:39.221Z,196.00
2024-03-12T06:49:39.110Z,196.00
2024-03-12T06:50:39.018Z,204.00
2024-03-12T06:51:39.009Z,232.00
2024-03-12T06:52:38.853Z,280.00
2024-03-12T06:53:38.770Z,348.00
2024-03-12T06:54:38.695Z,384.00
2024-03-12T06:55:38.602Z,396.00
2024-03-12T06:56:38.513Z,392.00
2024-03-12T06:57:38.445Z,380.00
2024-03-12T06:58:38.360Z,364.00
2024-03-12T06:59:38.269Z,352.00
2024-03-12T07:00:39.015Z,340.00
2024-03-12T07:01:38.106Z,332.00
2024-03-12T07:02:38.084Z,324.00
2024-03-12T07:03:37.944Z,348.00
2024-03-12T07:04:37.842Z,380.00
2024-03-12T07:05:37.864Z,408.00
2024-03-12T07:06:37.731Z,432.00
2024-03-12T07:07:37.584Z,452.00
2024-03-12T07:08:37.500Z,428.00
2024-03-12T07:09:37.430Z,364.00
2024-03-12T07:10:37.337Z,304.00
2024-03-12T07:11:37.247Z,260.00
2024-03-12T07:12:37.202Z,252.00
2024-03-12T07:13:37.084Z,268.00
2024-03-12T07:32:51.076Z,1052.00
2024-03-12T07:33:50.849Z,1064.00
2024-03-12T07:34:50.767Z,1076.00
2024-03-12T07:35:50.666Z,996.00
2024-03-12T07:36:50.702Z,1000.00
2024-03-12T07:37:50.503Z,1016.00
2024-03-12T07:38:50.424Z,1092.00
2024-03-12T07:39:50.581Z,1192.00
2024-03-12T07:40:50.256Z,1304.00
2024-03-12T07:41:50.166Z,1472.00
2024-03-12T07:42:50.104Z,1684.00
2024-03-12T07:43:49.992Z,1944.00
2024-03-12T07:44:49.908Z,2196.00
2024-03-12T07:45:49.861Z,2460.00
2024-03-12T07:46:49.744Z,2676.00
2024-03-12T07:47:49.755Z,2804.00
2024-03-12T07:48:49.705Z,2784.00
2024-03-12T07:49:49.486Z,2772.00
2024-03-12T07:50:49.413Z,2808.00
2024-03-12T07:51:49.353Z,2844.00
2024-03-12T07:52:49.272Z,2956.00
2024-03-12T07:53:49.205Z,3136.00
2024-03-12T07:54:49.121Z,3248.00
2024-03-12T07:55:48.996Z,3360.00
2024-03-12T07:56:48.900Z,3380.00
2024-03-12T07:57:48.849Z,3092.00
2024-03-12T07:58:48.731Z,2724.00
2024-03-12T07:59:48.649Z,2468.00
2024-03-12T08:00:48.606Z,2368.00
2024-03-12T08:01:48.487Z,2276.00
2024-03-12T08:02:48.396Z,2124.00
2024-03-12T08:03:48.334Z,2024.00
2024-03-12T08:04:48.267Z,1956.00
2024-03-12T08:05:48.148Z,1880.00
2024-03-12T08:06:48.077Z,1728.00
2024-03-12T08:07:47.978Z,1588.00
2024-03-12T08:08:47.895Z,1660.00
2024-03-12T08:09:47.877Z,1880.00
2024-03-12T08:10:47.737Z,2044.00
2024-03-12T08:11:47.644Z,2220.00
2024-03-12T08:12:47.639Z,2384.00
2024-03-12T08:13:47.476Z,2516.00
2024-03-12T08:14:47.386Z,2512.00
2024-03-12T08:15:47.322Z,2480.00
2024-03-12T08:16:47.222Z,2288.00
2024-03-12T08:17:48.317Z,2108.00
2024-03-12T08:18:47.120Z,1900.00
2024-03-12T08:19:46.987Z,1880.00
2024-03-12T08:20:47.270Z,2220.00
2024-03-12T08:21:46.831Z,2400.00
2024-03-12T08:22:46.737Z,2480.00
2024-03-12T08:23:46.639Z,2272.00
2024-03-12T08:24:46.595Z,2312.00
2024-03-12T08:25:55.595Z,2328.00
2024-03-12T08:26:46.387Z,2228.00
2024-03-12T08:27:46.345Z,2040.00
2024-03-12T08:28:46.221Z,2036.00
2024-03-12T08:29:46.139Z,2140.00
2024-03-12T08:30:46.112Z,2392.00
2024-03-12T08:31:51.711Z,2708.00
2024-03-12T08:32:46.345Z,3136.00
2024-03-12T08:34:28.455Z,3668.00
2024-03-12T08:35:28.208Z,3908.00
2024-03-12T08:36:28.240Z,4128.00
2024-03-12T08:37:28.034Z,4116.00
2024-03-12T08:39:25.483Z,3932.00
2024-03-12T08:40:25.522Z,4020.00
2024-03-12T08:41:25.325Z,4024.00
2024-03-12T08:42:25.237Z,3908.00
2024-03-12T08:43:26.138Z,3944.00
2024-03-12T08:44:25.400Z,3972.00
2024-03-12T08:45:25.302Z,3872.00
2024-03-12T08:46:24.897Z,3948.00
2024-03-12T08:47:24.851Z,3664.00
2024-03-12T08:48:24.746Z,3396.00
2024-03-12T08:49:24.726Z,3104.00
2024-03-12T08:50:24.634Z,3004.00
2024-03-12T08:51:24.482Z,3144.00
2024-03-12T08:52:24.523Z,3540.00
2024-03-12T08:53:24.318Z,3808.00
2024-03-12T08:54:24.246Z,3880.00
2024-03-12T08:55:24.178Z,3852.00
2024-03-12T08:56:24.070Z,3708.00
2024-03-12T08:57:23.987Z,3528.00
2024-03-12T08:58:23.926Z,3644.00
2024-03-12T08:59:23.824Z,3616.00
2024-03-12T09:00:23.736Z,3404.00
2024-03-12T09:01:23.711Z,3632.00
2024-03-12T09:02:23.575Z,3384.00
2024-03-12T09:03:23.760Z,3492.00
2024-03-12T09:04:23.418Z,3520.00
2024-03-12T09:05:23.320Z,3364.00
2024-03-12T09:06:23.250Z,2748.00
2024-03-12T09:07:23.287Z,2476.00
2024-03-12T09:08:23.118Z,2500.00
2024-03-12T09:09:23.263Z,2564.00
2024-03-12T09:10:23.023Z,2600.00
2024-03-12T09:11:22.893Z,2516.00
2024-03-12T09:12:22.738Z,2464.00
2024-03-12T09:13:22.659Z,2568.00
2024-03-12T09:14:22.580Z,2860.00
2024-03-12T09:15:25.163Z,3136.00
2024-03-12T09:16:22.491Z,3100.00
2024-03-12T09:17:22.324Z,3040.00
2024-03-12T09:18:25.969Z,2920.00
2024-03-12T09:19:22.188Z,2688.00
2024-03-12T09:20:22.079Z,2888.00
2024-03-12T09:21:21.993Z,3008.00
2024-03-12T09:22:21.933Z,2948.00
2024-03-12T09:23:21.864Z,3180.00
2024-03-12T09:25:21.733Z,3868.00
2024-03-12T09:26:21.581Z,3888.00
2024-03-12T09:27:21.502Z,3848.00
2024-03-12T09:28:21.476Z,3716.00
2024-03-12T09:29:21.329Z,3436.00
2024-03-12T09:30:21.268Z,3252.00
2024-03-12T09:31:21.204Z,3372.00
2024-03-12T09:32:21.242Z,3760.00
2024-03-12T09:33:21.002Z,4248.00
2024-03-12T09:34:20.946Z,4188.00
2024-03-12T09:35:20.855Z,4324.00
2024-03-12T09:36:20.757Z,4648.00
2024-03-12T09:37:20.777Z,4748.00
2024-03-12T09:38:20.594Z,4560.00
2024-03-12T09:39:20.529Z,4344.00
2024-03-12T09:40:20.488Z,4340.00
2024-03-12T09:41:20.384Z,4104.00
2024-03-12T09:42:20.254Z,3780.00
2024-03-12T09:43:20.191Z,3632.00
2024-03-12T09:44:20.089Z,3704.00
2024-03-12T09:45:20.006Z,3928.00
2024-03-12T09:46:19.988Z,3784.00
2024-03-12T09:47:19.842Z,3756.00
2024-03-12T09:48:19.761Z,3584.00
2024-03-12T09:49:19.714Z,3484.00
2024-03-12T09:50:19.600Z,3400.00
2024-03-12T09:51:19.509Z,3012.00
2024-03-12T09:52:19.454Z,2640.00
2024-03-12T09:53:19.359Z,2468.00
2024-03-12T09:54:19.268Z,2792.00
2024-03-12T09:55:19.332Z,2532.00
2024-03-12T09:56:19.441Z,2416.00
2024-03-12T09:57:19.152Z,2056.00
2024-03-12T09:58:18.989Z,1800.00
2024-03-12T09:59:18.851Z,1932.00
2024-03-12T10:00:18.767Z,1940.00
2024-03-12T10:01:18.718Z,1596.00
2024-03-12T10:02:18.664Z,1236.00
2024-03-12T10:03:18.516Z,1052.00
2024-03-12T10:04:18.459Z,1000.00
2024-03-12T10:05:18.352Z,1044.00
2024-03-12T10:06:18.273Z,952.00
2024-03-12T10:07:18.299Z,892.00
2024-03-12T10:08:18.390Z,1084.00
2024-03-12T10:09:18.026Z,1312.00
2024-03-12T10:10:18.105Z,1540.00
2024-03-12T10:11:17.882Z,1696.00
2024-03-12T10:12:17.774Z,1824.00
2024-03-12T10:13:18.312Z,1760.00
2024-03-12T10:14:17.606Z,1700.00
2024-03-12T10:15:17.518Z,1696.00
2024-03-12T10:16:18.018Z,1748.00
2024-03-12T10:17:17.354Z,1796.00
2024-03-12T10:18:17.420Z,1832.00
2024-03-12T10:19:17.313Z,1820.00
2024-03-12T10:20:17.500Z,1748.00
2024-03-12T10:21:17.019Z,1604.00
2024-03-12T10:22:16.978Z,1444.00
2024-03-12T10:23:17.104Z,1344.00
2024-03-12T10:24:16.898Z,1396.00
2024-03-12T10:25:16.791Z,1420.00
2024-03-12T10:26:16.606Z,1452.00
2024-03-12T10:27:16.532Z,1736.00
2024-03-12T10:28:16.501Z,2084.00
2024-03-12T10:29:16.400Z,2332.00
2024-03-12T10:30:16.272Z,2304.00
2024-03-12T10:31:16.633Z,2212.00
2024-03-12T10:32:16.106Z,2204.00
2024-03-12T10:33:16.071Z,2112.00
2024-03-12T10:34:15.999Z,2188.00
2024-03-12T10:35:15.856Z,2248.00
2024-03-12T10:36:15.785Z,2332.00
2024-03-12T10:37:15.759Z,2520.00
2024-03-12T10:38:15.638Z,2484.00
2024-03-12T10:39:15.525Z,2276.00
2024-03-12T10:40:15.505Z,2196.00
2024-03-12T10:41:15.378Z,2136.00
2024-03-12T10:42:15.283Z,2112.00
2024-03-12T10:43:15.421Z,2008.00
2024-03-12T10:44:15.147Z,1912.00
2024-03-12T10:45:15.171Z,2020.00
2024-03-12T10:46:15.005Z,2212.00
2024-03-12T10:47:14.863Z,2212.00
2024-03-12T10:48:14.811Z,2048.00
2024-03-12T10:49:14.965Z,2044.00
2024-03-12T10:50:14.610Z,2176.00
2024-03-12T10:51:14.996Z,2236.00
2024-03-12T10:52:14.643Z,2228.00
2024-03-12T10:53:14.381Z,2184.00
2024-03-12T10:54:14.279Z,2056.00
2024-03-12T10:55:14.373Z,2012.00
2024-03-12T10:56:16.034Z,2056.00
2024-03-12T10:57:14.037Z,2116.00
2024-03-12T10:58:13.961Z,2188.00
2024-03-12T10:59:13.877Z,2344.00
2024-03-12T11:00:13.935Z,2476.00
2024-03-12T11:01:13.911Z,2448.00
2024-03-12T11:02:13.694Z,2396.00
2024-03-12T11:03:13.533Z,2216.00
2024-03-12T11:04:13.545Z,2232.00
2024-03-12T11:05:13.398Z,2148.00
2024-03-12T11:06:13.296Z,2036.00
2024-03-12T11:07:13.255Z,2064.00
2024-03-12T11:08:13.122Z,2352.00
2024-03-12T11:09:13.075Z,2648.00
2024-03-12T11:10:13.057Z,2752.00
2024-03-12T11:11:12.978Z,2824.00
2024-03-12T11:12:12.790Z,2916.00
2024-03-12T11:13:13.019Z,3128.00
2024-03-12T11:14:12.624Z,3088.00
2024-03-12T11:15:12.543Z,2876.00
2024-03-12T11:16:12.707Z,2752.00
2024-03-12T11:17:12.413Z,2724.00
2024-03-12T11:18:12.335Z,2660.00
2024-03-12T11:19:12.279Z,2520.00
2024-03-12T11:20:12.134Z,2524.00
2024-03-12T11:21:12.043Z,2728.00
2024-03-12T11:22:12.198Z,3152.00
2024-03-12T11:23:11.909Z,3580.00
2024-03-12T11:24:11.798Z,3768.00
2024-03-12T11:25:11.823Z,3656.00
2024-03-12T11:26:11.630Z,3600.00
2024-03-12T11:27:11.547Z,3692.00
2024-03-12T11:28:11.488Z,3948.00
2024-03-12T11:29:11.394Z,3900.00
2024-03-12T11:30:11.414Z,3692.00
2024-03-12T11:31:11.394Z,3396.00
2024-03-12T11:32:12.672Z,3248.00
2024-03-12T11:33:11.149Z,3340.00
2024-03-12T11:34:11.066Z,3320.00
2024-03-12T11:35:10.890Z,3240.00
2024-03-12T11:36:10.894Z,3388.00
2024-03-12T11:37:10.858Z,3460.00
2024-03-12T11:38:12.604Z,3460.00
2024-03-12T11:39:10.586Z,3364.00
2024-03-12T11:40:10.627Z,3292.00
2024-03-12T11:41:10.423Z,3384.00
2024-03-12T11:42:10.318Z,3092.00
2024-03-12T11:43:10.295Z,2980.00
2024-03-12T11:44:12.501Z,2972.00
2024-03-12T11:45:10.065Z,3024.00
2024-03-12T11:46:10.224Z,2856.00
2024-03-12T11:47:09.905Z,2560.00
2024-03-12T11:48:09.859Z,2248.00
2024-03-12T11:49:09.854Z,1936.00
2024-03-12T11:50:09.863Z,1500.00
2024-03-12T11:51:09.777Z,1168.00
2024-03-12T11:52:09.578Z,948.00
2024-03-12T11:53:09.408Z,920.00
2024-03-12T11:54:09.334Z,900.00
2024-03-12T11:55:09.740Z,988.00
2024-03-12T11:56:10.359Z,1024.00
2024-03-12T11:57:09.079Z,984.00
2024-03-12T11:58:09.072Z,1260.00
2024-03-12T11:59:15.146Z,1640.00
2024-03-12T12:00:08.838Z,2160.00
2024-03-12T12:01:08.808Z,2980.00
2024-03-12T12:02:08.757Z,3472.00
2024-03-12T12:03:08.584Z,3812.00
2024-03-12T12:04:08.708Z,3948.00
2024-03-12T12:05:08.611Z,3800.00
2024-03-12T12:06:08.535Z,3984.00
2024-03-12T12:07:08.295Z,5032.00
2024-03-12T12:08:08.177Z,7452.00
2024-03-12T12:09:08.086Z,10496.00
2024-03-12T12:10:08.025Z,9404.00
2024-03-12T12:11:07.951Z,8024.00
2024-03-12T12:12:07.942Z,7936.00
2024-03-12T12:13:07.830Z,6872.00
2024-03-12T12:14:07.731Z,6912.00
2024-03-12T12:15:07.593Z,6360.00
2024-03-12T12:16:07.564Z,5852.00
2024-03-12T12:17:07.515Z,4644.00
2024-03-12T12:18:07.587Z,3936.00
2024-03-12T12:19:07.950Z,3540.00
2024-03-12T12:20:07.187Z,2828.00
2024-03-12T12:21:07.150Z,3088.00
2024-03-12T12:22:07.018Z,3340.00
2024-03-12T12:23:07.009Z,3444.00
2024-03-12T12:24:06.859Z,2820.00
2024-03-12T12:25:06.824Z,2324.00
2024-03-12T12:26:06.692Z,2040.00
2024-03-12T12:27:06.685Z,1800.00
2024-03-12T12:28:06.632Z,1736.00
2024-03-12T12:29:06.480Z,2032.00
2024-03-12T12:30:06.386Z,2532.00
2024-03-12T12:31:06.334Z,3924.00
2024-03-12T12:32:06.209Z,5816.00
2024-03-12T12:33:06.200Z,7252.00
2024-03-12T12:34:06.083Z,7300.00
2024-03-12T12:35:05.977Z,6740.00
2024-03-12T12:36:05.878Z,7292.00
2024-03-12T12:37:05.969Z,7764.00
2024-03-12T12:38:05.725Z,7164.00
2024-03-12T12:39:05.975Z,6972.00
2024-03-12T12:40:05.578Z,6624.00
2024-03-12T12:41:05.471Z,7036.00
2024-03-12T12:42:05.397Z,7784.00
2024-03-12T12:43:05.337Z,8896.00
2024-03-12T12:44:05.229Z,9856.00
2024-03-12T12:45:05.148Z,10064.00
2024-03-12T12:46:05.136Z,9872.00
2024-03-12T12:47:05.006Z,9504.00
2024-03-12T12:48:04.921Z,8664.00
2024-03-12T12:49:04.836Z,7584.00
2024-03-12T12:50:04.743Z,7252.00
2024-03-12T12:51:04.729Z,7356.00
2024-03-12T12:52:04.613Z,7556.00
2024-03-12T12:53:04.544Z,7528.00
2024-03-12T12:54:04.415Z,7372.00
2024-03-12T12:55:04.372Z,7040.00
2024-03-12T12:56:04.260Z,6748.00
2024-03-12T12:57:04.176Z,6560.00
2024-03-12T12:58:04.178Z,6524.00
2024-03-12T12:59:04.011Z,6676.00
2024-03-12T13:00:03.928Z,6864.00
2024-03-12T13:01:03.957Z,7124.00
2024-03-12T13:02:04.006Z,7196.00
2024-03-12T13:03:03.685Z,6764.00
2024-03-12T13:04:03.638Z,6356.00
2024-03-12T13:05:03.522Z,6080.00
2024-03-12T13:06:03.439Z,6056.00
2024-03-12T13:07:03.446Z,6336.00
2024-03-12T13:08:03.277Z,6584.00
2024-03-12T13:09:03.237Z,7868.00
2024-03-12T13:10:03.204Z,9856.00
2024-03-12T13:11:03.045Z,10716.00
2024-03-12T13:12:03.313Z,11536.00
2024-03-12T13:13:02.894Z,15288.00
2024-03-12T13:14:02.790Z,16448.00
2024-03-12T13:15:02.713Z,20096.00
2024-03-12T13:16:02.824Z,10444.00
2024-03-12T13:17:02.554Z,7960.00
2024-03-12T13:18:02.502Z,5084.00
2024-03-12T13:19:02.703Z,4000.00
2024-03-12T13:20:02.311Z,5620.00
2024-03-12T13:21:02.227Z,6416.00
2024-03-12T13:22:04.015Z,6032.00
2024-03-12T13:23:02.121Z,5344.00
2024-03-12T13:24:01.993Z,5936.00
2024-03-12T13:25:01.957Z,7592.00
2024-03-12T13:26:01.830Z,9132.00